sensor_id;sensor_type;location;lat;lon;timestamp;P1;durP1;ratioP1;P2;durP2;ratioP2
41259;SDS011;26993;48.958;9.330;2022-12-20T00:01:55;20.13;;;10.30;;
41259;SDS011;26993;48.958;9.330;2022-12-20T00:04:42;18.63;;;9.90;;
41259;SDS011;26993;48.958;9.330;2022-12-20T00:07:28;16.50;;;9.70;;
41259;SDS011;26993;48.958;9.330;2022-12-20T00:10:17;22.27;;;10.60;;
41259;SDS011;26993;48.958;9.330;2022-12-20T00:13:04;16.13;;;9.77;;
41259;SDS011;26993;48.958;9.330;2022-12-20T00:16:01;20.53;;;9.83;;
41259;SDS011;26993;48.958;9.330;2022-12-20T00:18:49;19.23;;;10.23;;
41259;SDS011;26993;48.958;9.330;2022-12-20T00:21:37;18.40;;;10.23;;
41259;SDS011;26993;48.958;9.330;2022-12-20T00:24:23;15.27;;;8.70;;
41259;SDS011;26993;48.958;9.330;2022-12-20T00:27:11;16.83;;;9.37;;
41259;SDS011;26993;48.958;9.330;2022-12-20T00:29:59;15.90;;;9.27;;
41259;SDS011;26993;48.958;9.330;2022-12-20T00:32:45;16.67;;;9.43;;
41259;SDS011;26993;48.958;9.330;2022-12-20T00:35:32;17.30;;;9.57;;
41259;SDS011;26993;48.958;9.330;2022-12-20T00:38:19;14.23;;;8.67;;
41259;SDS011;26993;48.958;9.330;2022-12-20T00:41:06;13.70;;;7.83;;
41259;SDS011;26993;48.958;9.330;2022-12-20T00:43:56;15.57;;;8.57;;
41259;SDS011;26993;48.958;9.330;2022-12-20T00:46:43;15.30;;;8.67;;
41259;SDS011;26993;48.958;9.330;2022-12-20T00:49:29;15.87;;;9.07;;
41259;SDS011;26993;48.958;9.330;2022-12-20T00:52:16;14.77;;;9.20;;
41259;SDS011;26993;48.958;9.330;2022-12-20T00:55:03;14.17;;;8.93;;
41259;SDS011;26993;48.958;9.330;2022-12-20T00:57:50;14.47;;;7.43;;
41259;SDS011;26993;48.958;9.330;2022-12-20T01:00:38;15.57;;;8.33;;
41259;SDS011;26993;48.958;9.330;2022-12-20T01:03:25;15.77;;;8.63;;
41259;SDS011;26993;48.958;9.330;2022-12-20T01:06:12;15.23;;;8.83;;
41259;SDS011;26993;48.958;9.330;2022-12-20T01:08:59;17.17;;;9.37;;
41259;SDS011;26993;48.958;9.330;2022-12-20T01:11:46;15.40;;;8.50;;
41259;SDS011;26993;48.958;9.330;2022-12-20T01:14:32;16.97;;;9.33;;
41259;SDS011;26993;48.958;9.330;2022-12-20T01:17:21;15.47;;;8.30;;
41259;SDS011;26993;48.958;9.330;2022-12-20T01:20:07;15.37;;;8.93;;
41259;SDS011;26993;48.958;9.330;2022-12-20T01:22:54;15.83;;;8.90;;
41259;SDS011;26993;48.958;9.330;2022-12-20T01:25:41;18.53;;;9.17;;
41259;SDS011;26993;48.958;9.330;2022-12-20T01:28:28;15.27;;;9.23;;
41259;SDS011;26993;48.958;9.330;2022-12-20T01:31:15;16.17;;;9.70;;
41259;SDS011;26993;48.958;9.330;2022-12-20T01:34:05;16.17;;;9.53;;
41259;SDS011;26993;48.958;9.330;2022-12-20T01:36:52;17.63;;;9.87;;
41259;SDS011;26993;48.958;9.330;2022-12-20T01:39:38;18.23;;;9.50;;
41259;SDS011;26993;48.958;9.330;2022-12-20T01:42:25;15.03;;;8.43;;
41259;SDS011;26993;48.958;9.330;2022-12-20T01:45:13;16.33;;;9.13;;
41259;SDS011;26993;48.958;9.330;2022-12-20T01:48:09;16.73;;;8.50;;
41259;SDS011;26993;48.958;9.330;2022-12-20T01:50:58;15.43;;;8.67;;
41259;SDS011;26993;48.958;9.330;2022-12-20T01:53:45;13.60;;;8.43;;
41259;SDS011;26993;48.958;9.330;2022-12-20T01:56:37;15.20;;;8.77;;
41259;SDS011;26993;48.958;9.330;2022-12-20T01:59:28;13.80;;;8.63;;
41259;SDS011;26993;48.958;9.330;2022-12-20T02:02:19;16.97;;;9.33;;
41259;SDS011;26993;48.958;9.330;2022-12-20T02:05:07;13.87;;;8.47;;
41259;SDS011;26993;48.958;9.330;2022-12-20T02:07:55;14.27;;;7.67;;
41259;SDS011;26993;48.958;9.330;2022-12-20T02:10:46;14.73;;;8.53;;
41259;SDS011;26993;48.958;9.330;2022-12-20T02:13:46;12.67;;;8.20;;
41259;SDS011;26993;48.958;9.330;2022-12-20T02:16:43;18.03;;;8.53;;
41259;SDS011;26993;48.958;9.330;2022-12-20T02:19:47;13.07;;;8.10;;
41259;SDS011;26993;48.958;9.330;2022-12-20T02:22:51;14.50;;;9.13;;
41259;SDS011;26993;48.958;9.330;2022-12-20T02:26:05;15.70;;;8.90;;
41259;SDS011;26993;48.958;9.330;2022-12-20T02:29:08;15.13;;;8.10;;
41259;SDS011;26993;48.958;9.330;2022-12-20T02:32:07;15.23;;;8.93;;
41259;SDS011;26993;48.958;9.330;2022-12-20T02:34:57;16.20;;;9.03;;
41259;SDS011;26993;48.958;9.330;2022-12-20T02:37:46;20.43;;;10.20;;
41259;SDS011;26993;48.958;9.330;2022-12-20T02:40:36;18.83;;;9.63;;
41259;SDS011;26993;48.958;9.330;2022-12-20T02:43:26;16.40;;;9.33;;
41259;SDS011;26993;48.958;9.330;2022-12-20T02:46:32;13.40;;;8.43;;
41259;SDS011;26993;48.958;9.330;2022-12-20T02:49:23;16.23;;;8.80;;
41259;SDS011;26993;48.958;9.330;2022-12-20T02:52:15;16.73;;;8.43;;
41259;SDS011;26993;48.958;9.330;2022-12-20T02:55:06;15.80;;;7.83;;
41259;SDS011;26993;48.958;9.330;2022-12-20T02:57:55;15.53;;;8.50;;
41259;SDS011;26993;48.958;9.330;2022-12-20T03:00:48;16.07;;;8.80;;
41259;SDS011;26993;48.958;9.330;2022-12-20T03:03:36;13.93;;;7.93;;
41259;SDS011;26993;48.958;9.330;2022-12-20T03:06:25;14.97;;;7.97;;
41259;SDS011;26993;48.958;9.330;2022-12-20T03:09:11;14.20;;;8.27;;
41259;SDS011;26993;48.958;9.330;2022-12-20T03:11:58;14.77;;;8.47;;
41259;SDS011;26993;48.958;9.330;2022-12-20T03:14:45;14.97;;;8.20;;
41259;SDS011;26993;48.958;9.330;2022-12-20T03:17:32;15.17;;;8.37;;
41259;SDS011;26993;48.958;9.330;2022-12-20T03:20:18;12.77;;;7.73;;
41259;SDS011;26993;48.958;9.330;2022-12-20T03:23:06;13.37;;;7.60;;
41259;SDS011;26993;48.958;9.330;2022-12-20T03:25:53;13.50;;;7.77;;
41259;SDS011;26993;48.958;9.330;2022-12-20T03:28:40;10.87;;;6.90;;
41259;SDS011;26993;48.958;9.330;2022-12-20T03:31:27;13.07;;;7.70;;
41259;SDS011;26993;48.958;9.330;2022-12-20T03:34:13;12.53;;;7.43;;
41259;SDS011;26993;48.958;9.330;2022-12-20T03:37:00;13.43;;;7.50;;
41259;SDS011;26993;48.958;9.330;2022-12-20T03:39:48;10.70;;;6.93;;
41259;SDS011;26993;48.958;9.330;2022-12-20T03:42:35;9.97;;;5.50;;
41259;SDS011;26993;48.958;9.330;2022-12-20T03:45:22;8.73;;;5.90;;
41259;SDS011;26993;48.958;9.330;2022-12-20T03:48:08;9.27;;;6.07;;
41259;SDS011;26993;48.958;9.330;2022-12-20T03:50:55;10.80;;;6.43;;
41259;SDS011;26993;48.958;9.330;2022-12-20T03:53:42;11.20;;;6.00;;
41259;SDS011;26993;48.958;9.330;2022-12-20T03:56:30;8.30;;;5.80;;
41259;SDS011;26993;48.958;9.330;2022-12-20T03:59:16;10.43;;;6.77;;
41259;SDS011;26993;48.958;9.330;2022-12-20T04:02:03;10.83;;;6.50;;
41259;SDS011;26993;48.958;9.330;2022-12-20T04:04:50;9.87;;;6.03;;
41259;SDS011;26993;48.958;9.330;2022-12-20T04:07:36;10.50;;;6.30;;
41259;SDS011;26993;48.958;9.330;2022-12-20T04:10:23;11.00;;;6.00;;
41259;SDS011;26993;48.958;9.330;2022-12-20T04:13:11;10.80;;;5.90;;
41259;SDS011;26993;48.958;9.330;2022-12-20T04:15:58;10.43;;;6.60;;
41259;SDS011;26993;48.958;9.330;2022-12-20T04:18:45;10.50;;;5.33;;
41259;SDS011;26993;48.958;9.330;2022-12-20T04:21:32;10.53;;;5.80;;
41259;SDS011;26993;48.958;9.330;2022-12-20T04:24:20;7.93;;;5.43;;
41259;SDS011;26993;48.958;9.330;2022-12-20T04:27:07;9.67;;;5.77;;
41259;SDS011;26993;48.958;9.330;2022-12-20T04:29:55;9.27;;;5.83;;
41259;SDS011;26993;48.958;9.330;2022-12-20T04:32:41;12.90;;;6.60;;
41259;SDS011;26993;48.958;9.330;2022-12-20T04:35:28;11.40;;;5.93;;
41259;SDS011;26993;48.958;9.330;2022-12-20T04:38:14;10.57;;;6.27;;
41259;SDS011;26993;48.958;9.330;2022-12-20T04:41:02;12.67;;;7.67;;
41259;SDS011;26993;48.958;9.330;2022-12-20T04:43:49;13.80;;;8.23;;
41259;SDS011;26993;48.958;9.330;2022-12-20T04:46:38;13.37;;;8.60;;
41259;SDS011;26993;48.958;9.330;2022-12-20T04:49:24;11.97;;;7.27;;
41259;SDS011;26993;48.958;9.330;2022-12-20T04:52:11;11.00;;;6.47;;
41259;SDS011;26993;48.958;9.330;2022-12-20T04:55:15;11.40;;;6.40;;
41259;SDS011;26993;48.958;9.330;2022-12-20T04:58:02;13.60;;;7.90;;
41259;SDS011;26993;48.958;9.330;2022-12-20T05:00:49;12.03;;;6.60;;
41259;SDS011;26993;48.958;9.330;2022-12-20T05:03:38;10.63;;;6.47;;
41259;SDS011;26993;48.958;9.330;2022-12-20T05:06:25;9.70;;;5.97;;
41259;SDS011;26993;48.958;9.330;2022-12-20T05:09:11;7.90;;;5.00;;
41259;SDS011;26993;48.958;9.330;2022-12-20T05:11:58;8.20;;;5.50;;
41259;SDS011;26993;48.958;9.330;2022-12-20T05:14:45;16.20;;;8.20;;
41259;SDS011;26993;48.958;9.330;2022-12-20T05:17:31;11.67;;;6.67;;
41259;SDS011;26993;48.958;9.330;2022-12-20T05:20:19;13.00;;;7.30;;
41259;SDS011;26993;48.958;9.330;2022-12-20T05:23:07;14.00;;;7.03;;
41259;SDS011;26993;48.958;9.330;2022-12-20T05:26:12;10.37;;;6.27;;
41259;SDS011;26993;48.958;9.330;2022-12-20T05:29:05;9.47;;;5.97;;
41259;SDS011;26993;48.958;9.330;2022-12-20T05:31:52;9.77;;;6.40;;
41259;SDS011;26993;48.958;9.330;2022-12-20T05:34:39;11.53;;;7.47;;
41259;SDS011;26993;48.958;9.330;2022-12-20T05:37:27;12.73;;;7.30;;
41259;SDS011;26993;48.958;9.330;2022-12-20T05:40:13;11.37;;;5.97;;
41259;SDS011;26993;48.958;9.330;2022-12-20T05:43:02;11.73;;;6.37;;
41259;SDS011;26993;48.958;9.330;2022-12-20T05:45:50;12.43;;;6.53;;
41259;SDS011;26993;48.958;9.330;2022-12-20T05:48:38;14.10;;;9.03;;
41259;SDS011;26993;48.958;9.330;2022-12-20T05:51:24;15.23;;;9.00;;
41259;SDS011;26993;48.958;9.330;2022-12-20T05:54:13;9.43;;;6.00;;
41259;SDS011;26993;48.958;9.330;2022-12-20T05:56:59;10.50;;;6.17;;
41259;SDS011;26993;48.958;9.330;2022-12-20T05:59:46;10.03;;;6.30;;
41259;SDS011;26993;48.958;9.330;2022-12-20T06:02:32;9.23;;;5.80;;
41259;SDS011;26993;48.958;9.330;2022-12-20T06:05:19;11.67;;;5.97;;
41259;SDS011;26993;48.958;9.330;2022-12-20T06:08:06;12.13;;;6.43;;
41259;SDS011;26993;48.958;9.330;2022-12-20T06:10:55;11.97;;;6.63;;
41259;SDS011;26993;48.958;9.330;2022-12-20T06:13:42;15.60;;;5.43;;
41259;SDS011;26993;48.958;9.330;2022-12-20T06:16:28;11.60;;;5.47;;
41259;SDS011;26993;48.958;9.330;2022-12-20T06:19:15;17.23;;;6.23;;
41259;SDS011;26993;48.958;9.330;2022-12-20T06:22:02;16.43;;;6.63;;
41259;SDS011;26993;48.958;9.330;2022-12-20T06:24:48;12.67;;;6.67;;
41259;SDS011;26993;48.958;9.330;2022-12-20T06:27:37;14.53;;;5.90;;
41259;SDS011;26993;48.958;9.330;2022-12-20T06:30:23;17.80;;;8.63;;
41259;SDS011;26993;48.958;9.330;2022-12-20T06:33:10;24.73;;;11.07;;
41259;SDS011;26993;48.958;9.330;2022-12-20T06:35:57;17.57;;;9.03;;
41259;SDS011;26993;48.958;9.330;2022-12-20T06:38:44;14.63;;;6.70;;
41259;SDS011;26993;48.958;9.330;2022-12-20T06:41:30;12.47;;;5.97;;
41259;SDS011;26993;48.958;9.330;2022-12-20T06:44:18;10.40;;;5.63;;
41259;SDS011;26993;48.958;9.330;2022-12-20T06:47:05;9.37;;;5.53;;
41259;SDS011;26993;48.958;9.330;2022-12-20T06:49:51;30.70;;;8.83;;
41259;SDS011;26993;48.958;9.330;2022-12-20T06:52:38;19.07;;;7.60;;
41259;SDS011;26993;48.958;9.330;2022-12-20T06:55:25;20.43;;;8.10;;
41259;SDS011;26993;48.958;9.330;2022-12-20T06:58:11;22.17;;;8.40;;
41259;SDS011;26993;48.958;9.330;2022-12-20T07:00:59;17.57;;;6.30;;
41259;SDS011;26993;48.958;9.330;2022-12-20T07:03:46;22.43;;;9.83;;
41259;SDS011;26993;48.958;9.330;2022-12-20T07:06:33;27.33;;;7.17;;
41259;SDS011;26993;48.958;9.330;2022-12-20T07:09:19;14.23;;;6.47;;
41259;SDS011;26993;48.958;9.330;2022-12-20T07:12:06;10.53;;;5.53;;
41259;SDS011;26993;48.958;9.330;2022-12-20T07:14:53;9.00;;;5.37;;
41259;SDS011;26993;48.958;9.330;2022-12-20T07:17:41;22.97;;;9.23;;
41259;SDS011;26993;48.958;9.330;2022-12-20T07:20:28;16.73;;;8.10;;
41259;SDS011;26993;48.958;9.330;2022-12-20T07:23:15;17.77;;;7.20;;
41259;SDS011;26993;48.958;9.330;2022-12-20T07:26:03;13.70;;;6.50;;
41259;SDS011;26993;48.958;9.330;2022-12-20T07:28:49;9.80;;;5.83;;
41259;SDS011;26993;48.958;9.330;2022-12-20T07:31:36;14.77;;;5.73;;
41259;SDS011;26993;48.958;9.330;2022-12-20T07:34:24;8.27;;;5.03;;
41259;SDS011;26993;48.958;9.330;2022-12-20T07:37:11;10.03;;;5.27;;
41259;SDS011;26993;48.958;9.330;2022-12-20T07:39:58;9.90;;;5.00;;
41259;SDS011;26993;48.958;9.330;2022-12-20T07:42:44;7.80;;;4.77;;
41259;SDS011;26993;48.958;9.330;2022-12-20T07:45:31;11.37;;;5.37;;
41259;SDS011;26993;48.958;9.330;2022-12-20T07:48:18;8.50;;;5.20;;
41259;SDS011;26993;48.958;9.330;2022-12-20T07:51:06;8.00;;;5.13;;
41259;SDS011;26993;48.958;9.330;2022-12-20T07:53:58;9.77;;;4.80;;
41259;SDS011;26993;48.958;9.330;2022-12-20T07:56:48;8.10;;;4.63;;
41259;SDS011;26993;48.958;9.330;2022-12-20T07:59:41;9.10;;;5.57;;
41259;SDS011;26993;48.958;9.330;2022-12-20T08:02:36;8.93;;;5.17;;
41259;SDS011;26993;48.958;9.330;2022-12-20T08:05:25;8.23;;;4.90;;
41259;SDS011;26993;48.958;9.330;2022-12-20T08:08:14;7.30;;;4.40;;
41259;SDS011;26993;48.958;9.330;2022-12-20T08:11:02;8.80;;;4.90;;
41259;SDS011;26993;48.958;9.330;2022-12-20T08:13:49;8.73;;;5.23;;
41259;SDS011;26993;48.958;9.330;2022-12-20T08:16:37;15.53;;;6.67;;
41259;SDS011;26993;48.958;9.330;2022-12-20T08:19:24;33.67;;;8.00;;
41259;SDS011;26993;48.958;9.330;2022-12-20T08:22:11;24.10;;;7.93;;
41259;SDS011;26993;48.958;9.330;2022-12-20T08:24:59;29.60;;;9.10;;
41259;SDS011;26993;48.958;9.330;2022-12-20T08:27:45;30.63;;;9.53;;
41259;SDS011;26993;48.958;9.330;2022-12-20T08:30:33;15.93;;;7.73;;
41259;SDS011;26993;48.958;9.330;2022-12-20T08:33:20;17.23;;;7.53;;
41259;SDS011;26993;48.958;9.330;2022-12-20T08:36:07;12.50;;;6.43;;
41259;SDS011;26993;48.958;9.330;2022-12-20T08:38:55;15.90;;;6.67;;
41259;SDS011;26993;48.958;9.330;2022-12-20T08:41:43;18.40;;;6.83;;
41259;SDS011;26993;48.958;9.330;2022-12-20T08:44:30;28.07;;;7.97;;
41259;SDS011;26993;48.958;9.330;2022-12-20T08:47:17;24.80;;;7.40;;
41259;SDS011;26993;48.958;9.330;2022-12-20T08:50:04;41.73;;;9.27;;
41259;SDS011;26993;48.958;9.330;2022-12-20T08:52:51;64.73;;;10.33;;
41259;SDS011;26993;48.958;9.330;2022-12-20T08:55:38;44.23;;;9.57;;
41259;SDS011;26993;48.958;9.330;2022-12-20T08:58:26;25.57;;;8.30;;
41259;SDS011;26993;48.958;9.330;2022-12-20T09:01:14;36.77;;;8.57;;
41259;SDS011;26993;48.958;9.330;2022-12-20T09:04:02;28.97;;;8.53;;
41259;SDS011;26993;48.958;9.330;2022-12-20T09:06:50;36.57;;;8.97;;
41259;SDS011;26993;48.958;9.330;2022-12-20T09:09:37;37.73;;;8.80;;
41259;SDS011;26993;48.958;9.330;2022-12-20T09:12:23;32.60;;;8.23;;
41259;SDS011;26993;48.958;9.330;2022-12-20T09:15:11;30.00;;;8.40;;
41259;SDS011;26993;48.958;9.330;2022-12-20T09:17:58;23.57;;;7.90;;
41259;SDS011;26993;48.958;9.330;2022-12-20T09:20:45;24.13;;;8.07;;
41259;SDS011;26993;48.958;9.330;2022-12-20T09:23:32;22.13;;;7.63;;
41259;SDS011;26993;48.958;9.330;2022-12-20T09:26:21;19.50;;;8.07;;
41259;SDS011;26993;48.958;9.330;2022-12-20T09:29:08;16.47;;;7.17;;
41259;SDS011;26993;48.958;9.330;2022-12-20T09:31:56;21.30;;;7.50;;
41259;SDS011;26993;48.958;9.330;2022-12-20T09:34:43;29.97;;;9.47;;
41259;SDS011;26993;48.958;9.330;2022-12-20T09:37:31;24.60;;;8.60;;
41259;SDS011;26993;48.958;9.330;2022-12-20T09:40:18;14.53;;;6.57;;
41259;SDS011;26993;48.958;9.330;2022-12-20T09:43:07;17.63;;;8.13;;
41259;SDS011;26993;48.958;9.330;2022-12-20T09:45:55;14.47;;;6.97;;
41259;SDS011;26993;48.958;9.330;2022-12-20T09:48:46;18.20;;;8.07;;
41259;SDS011;26993;48.958;9.330;2022-12-20T09:51:41;25.10;;;8.77;;
41259;SDS011;26993;48.958;9.330;2022-12-20T09:54:46;26.37;;;10.50;;
41259;SDS011;26993;48.958;9.330;2022-12-20T09:57:46;16.43;;;7.10;;
41259;SDS011;26993;48.958;9.330;2022-12-20T10:00:44;13.50;;;6.60;;
41259;SDS011;26993;48.958;9.330;2022-12-20T10:03:32;16.63;;;6.53;;
41259;SDS011;26993;48.958;9.330;2022-12-20T10:06:25;14.50;;;7.07;;
41259;SDS011;26993;48.958;9.330;2022-12-20T10:09:26;14.20;;;6.77;;
41259;SDS011;26993;48.958;9.330;2022-12-20T10:12:26;19.13;;;7.40;;
41259;SDS011;26993;48.958;9.330;2022-12-20T10:15:20;17.13;;;6.60;;
41259;SDS011;26993;48.958;9.330;2022-12-20T10:18:16;13.10;;;6.67;;
41259;SDS011;26993;48.958;9.330;2022-12-20T10:21:16;18.97;;;7.00;;
41259;SDS011;26993;48.958;9.330;2022-12-20T10:24:13;24.07;;;8.07;;
41259;SDS011;26993;48.958;9.330;2022-12-20T10:27:06;20.13;;;7.07;;
41259;SDS011;26993;48.958;9.330;2022-12-20T10:29:59;20.47;;;7.60;;
41259;SDS011;26993;48.958;9.330;2022-12-20T10:32:46;16.87;;;7.33;;
41259;SDS011;26993;48.958;9.330;2022-12-20T10:35:36;22.20;;;7.53;;
41259;SDS011;26993;48.958;9.330;2022-12-20T10:38:24;13.93;;;6.73;;
41259;SDS011;26993;48.958;9.330;2022-12-20T10:41:31;13.50;;;7.07;;
41259;SDS011;26993;48.958;9.330;2022-12-20T10:44:32;15.40;;;7.20;;
41259;SDS011;26993;48.958;9.330;2022-12-20T10:47:21;15.20;;;7.13;;
41259;SDS011;26993;48.958;9.330;2022-12-20T10:50:21;15.60;;;6.97;;
41259;SDS011;26993;48.958;9.330;2022-12-20T10:53:19;10.97;;;6.37;;
41259;SDS011;26993;48.958;9.330;2022-12-20T10:56:12;16.60;;;7.07;;
41259;SDS011;26993;48.958;9.330;2022-12-20T11:05:22;11.67;;;6.37;;
41259;SDS011;26993;48.958;9.330;2022-12-20T11:08:12;12.43;;;6.83;;
41259;SDS011;26993;48.958;9.330;2022-12-20T11:11:12;12.70;;;6.53;;
41259;SDS011;26993;48.958;9.330;2022-12-20T11:14:12;11.23;;;7.00;;
41259;SDS011;26993;48.958;9.330;2022-12-20T11:17:02;10.20;;;6.27;;
41259;SDS011;26993;48.958;9.330;2022-12-20T11:19:55;12.33;;;6.70;;
41259;SDS011;26993;48.958;9.330;2022-12-20T11:22:54;10.63;;;6.03;;
41259;SDS011;26993;48.958;9.330;2022-12-20T11:25:53;11.37;;;6.00;;
41259;SDS011;26993;48.958;9.330;2022-12-20T11:28:55;10.83;;;6.27;;
41259;SDS011;26993;48.958;9.330;2022-12-20T11:31:58;11.50;;;6.27;;
41259;SDS011;26993;48.958;9.330;2022-12-20T11:34:53;9.57;;;4.90;;
41259;SDS011;26993;48.958;9.330;2022-12-20T11:37:49;11.23;;;5.67;;
41259;SDS011;26993;48.958;9.330;2022-12-20T11:40:49;11.77;;;5.33;;
41259;SDS011;26993;48.958;9.330;2022-12-20T11:43:44;9.13;;;5.30;;
41259;SDS011;26993;48.958;9.330;2022-12-20T11:46:46;9.57;;;5.07;;
41259;SDS011;26993;48.958;9.330;2022-12-20T11:49:55;7.47;;;4.90;;
41259;SDS011;26993;48.958;9.330;2022-12-20T11:53:06;9.37;;;4.97;;
41259;SDS011;26993;48.958;9.330;2022-12-20T11:55:59;10.37;;;4.57;;
41259;SDS011;26993;48.958;9.330;2022-12-20T11:58:49;7.93;;;4.33;;
41259;SDS011;26993;48.958;9.330;2022-12-20T12:01:42;8.30;;;4.30;;
41259;SDS011;26993;48.958;9.330;2022-12-20T12:04:33;7.20;;;4.17;;
41259;SDS011;26993;48.958;9.330;2022-12-20T12:07:26;8.13;;;4.47;;
41259;SDS011;26993;48.958;9.330;2022-12-20T12:10:17;11.47;;;4.73;;
41259;SDS011;26993;48.958;9.330;2022-12-20T12:13:10;10.17;;;4.70;;
41259;SDS011;26993;48.958;9.330;2022-12-20T12:16:04;8.83;;;4.90;;
41259;SDS011;26993;48.958;9.330;2022-12-20T12:18:56;7.30;;;4.33;;
41259;SDS011;26993;48.958;9.330;2022-12-20T12:21:45;7.90;;;4.47;;
41259;SDS011;26993;48.958;9.330;2022-12-20T12:24:39;7.97;;;4.60;;
41259;SDS011;26993;48.958;9.330;2022-12-20T12:27:31;7.77;;;4.50;;
41259;SDS011;26993;48.958;9.330;2022-12-20T12:30:18;10.73;;;4.80;;
41259;SDS011;26993;48.958;9.330;2022-12-20T12:33:05;6.90;;;4.17;;
41259;SDS011;26993;48.958;9.330;2022-12-20T12:39:21;7.20;;;4.67;;
41259;SDS011;26993;48.958;9.330;2022-12-20T12:45:55;6.57;;;4.40;;
41259;SDS011;26993;48.958;9.330;2022-12-20T12:48:44;5.97;;;3.83;;
41259;SDS011;26993;48.958;9.330;2022-12-20T12:51:36;8.17;;;4.37;;
41259;SDS011;26993;48.958;9.330;2022-12-20T12:54:27;6.80;;;3.80;;
41259;SDS011;26993;48.958;9.330;2022-12-20T12:57:16;8.07;;;4.40;;
41259;SDS011;26993;48.958;9.330;2022-12-20T13:00:17;9.37;;;4.40;;
41259;SDS011;26993;48.958;9.330;2022-12-20T13:03:44;13.60;;;5.13;;
41259;SDS011;26993;48.958;9.330;2022-12-20T13:06:57;13.03;;;4.70;;
41259;SDS011;26993;48.958;9.330;2022-12-20T13:09:46;11.30;;;4.73;;
41259;SDS011;26993;48.958;9.330;2022-12-20T13:15:51;9.17;;;5.17;;
41259;SDS011;26993;48.958;9.330;2022-12-20T13:18:58;20.30;;;6.47;;
41259;SDS011;26993;48.958;9.330;2022-12-20T13:21:59;9.50;;;4.90;;
41259;SDS011;26993;48.958;9.330;2022-12-20T13:25:18;14.37;;;6.50;;
41259;SDS011;26993;48.958;9.330;2022-12-20T13:31:33;8.60;;;5.13;;
41259;SDS011;26993;48.958;9.330;2022-12-20T13:34:42;11.03;;;5.90;;
41259;SDS011;26993;48.958;9.330;2022-12-20T13:37:50;8.93;;;5.30;;
41259;SDS011;26993;48.958;9.330;2022-12-20T13:40:39;13.17;;;5.37;;
41259;SDS011;26993;48.958;9.330;2022-12-20T13:43:34;7.43;;;4.67;;
41259;SDS011;26993;48.958;9.330;2022-12-20T13:46:29;10.20;;;4.97;;
41259;SDS011;26993;48.958;9.330;2022-12-20T13:49:24;9.93;;;5.27;;
41259;SDS011;26993;48.958;9.330;2022-12-20T13:52:23;9.13;;;5.13;;
41259;SDS011;26993;48.958;9.330;2022-12-20T13:55:15;9.63;;;5.67;;
41259;SDS011;26993;48.958;9.330;2022-12-20T13:58:12;7.90;;;5.20;;
41259;SDS011;26993;48.958;9.330;2022-12-20T14:01:02;7.70;;;4.87;;
41259;SDS011;26993;48.958;9.330;2022-12-20T14:03:51;11.47;;;5.97;;
41259;SDS011;26993;48.958;9.330;2022-12-20T14:06:38;15.70;;;6.63;;
41259;SDS011;26993;48.958;9.330;2022-12-20T14:09:27;10.67;;;6.10;;
41259;SDS011;26993;48.958;9.330;2022-12-20T14:12:18;12.13;;;6.63;;
41259;SDS011;26993;48.958;9.330;2022-12-20T14:15:17;9.80;;;5.43;;
41259;SDS011;26993;48.958;9.330;2022-12-20T14:18:15;18.90;;;7.13;;
41259;SDS011;26993;48.958;9.330;2022-12-20T14:21:03;17.50;;;7.87;;
41259;SDS011;26993;48.958;9.330;2022-12-20T14:23:51;19.33;;;8.40;;
41259;SDS011;26993;48.958;9.330;2022-12-20T14:26:42;14.00;;;8.20;;
41259;SDS011;26993;48.958;9.330;2022-12-20T14:29:32;14.57;;;7.40;;
41259;SDS011;26993;48.958;9.330;2022-12-20T14:32:19;12.50;;;6.53;;
41259;SDS011;26993;48.958;9.330;2022-12-20T14:35:16;10.87;;;6.23;;
41259;SDS011;26993;48.958;9.330;2022-12-20T14:38:04;9.43;;;5.87;;
41259;SDS011;26993;48.958;9.330;2022-12-20T14:40:51;10.57;;;5.93;;
41259;SDS011;26993;48.958;9.330;2022-12-20T14:43:39;17.70;;;6.57;;
41259;SDS011;26993;48.958;9.330;2022-12-20T14:46:26;14.17;;;6.20;;
41259;SDS011;26993;48.958;9.330;2022-12-20T14:49:17;11.53;;;7.50;;
41259;SDS011;26993;48.958;9.330;2022-12-20T14:52:11;11.57;;;7.17;;
41259;SDS011;26993;48.958;9.330;2022-12-20T14:55:03;10.77;;;7.00;;
41259;SDS011;26993;48.958;9.330;2022-12-20T14:57:53;14.73;;;7.47;;
41259;SDS011;26993;48.958;9.330;2022-12-20T15:00:53;14.67;;;7.10;;
41259;SDS011;26993;48.958;9.330;2022-12-20T15:03:47;11.57;;;6.10;;
41259;SDS011;26993;48.958;9.330;2022-12-20T15:06:36;11.13;;;6.20;;
41259;SDS011;26993;48.958;9.330;2022-12-20T15:09:26;9.30;;;5.93;;
41259;SDS011;26993;48.958;9.330;2022-12-20T15:12:13;9.70;;;5.80;;
41259;SDS011;26993;48.958;9.330;2022-12-20T15:15:00;9.63;;;5.77;;
41259;SDS011;26993;48.958;9.330;2022-12-20T15:17:48;11.97;;;6.13;;
41259;SDS011;26993;48.958;9.330;2022-12-20T15:20:34;8.93;;;5.43;;
41259;SDS011;26993;48.958;9.330;2022-12-20T15:23:21;13.87;;;5.87;;
41259;SDS011;26993;48.958;9.330;2022-12-20T15:26:08;11.27;;;5.77;;
41259;SDS011;26993;48.958;9.330;2022-12-20T15:29:00;7.33;;;5.00;;
41259;SDS011;26993;48.958;9.330;2022-12-20T15:31:47;10.50;;;5.10;;
41259;SDS011;26993;48.958;9.330;2022-12-20T15:34:37;9.60;;;5.13;;
41259;SDS011;26993;48.958;9.330;2022-12-20T15:37:24;8.60;;;5.40;;
41259;SDS011;26993;48.958;9.330;2022-12-20T15:40:12;8.50;;;5.20;;
41259;SDS011;26993;48.958;9.330;2022-12-20T15:43:00;9.13;;;5.20;;
41259;SDS011;26993;48.958;9.330;2022-12-20T15:45:47;10.03;;;5.10;;
41259;SDS011;26993;48.958;9.330;2022-12-20T15:48:37;7.77;;;5.03;;
41259;SDS011;26993;48.958;9.330;2022-12-20T15:51:25;8.70;;;4.57;;
41259;SDS011;26993;48.958;9.330;2022-12-20T15:54:19;8.87;;;5.07;;
41259;SDS011;26993;48.958;9.330;2022-12-20T15:57:10;10.40;;;5.20;;
41259;SDS011;26993;48.958;9.330;2022-12-20T15:59:59;8.27;;;4.60;;
41259;SDS011;26993;48.958;9.330;2022-12-20T16:02:46;7.63;;;5.40;;
41259;SDS011;26993;48.958;9.330;2022-12-20T16:05:35;11.37;;;5.37;;
41259;SDS011;26993;48.958;9.330;2022-12-20T16:08:22;9.87;;;5.13;;
41259;SDS011;26993;48.958;9.330;2022-12-20T16:11:13;10.10;;;5.07;;
41259;SDS011;26993;48.958;9.330;2022-12-20T16:14:05;7.57;;;4.40;;
41259;SDS011;26993;48.958;9.330;2022-12-20T16:16:52;9.00;;;4.50;;
41259;SDS011;26993;48.958;9.330;2022-12-20T16:19:39;7.23;;;4.60;;
41259;SDS011;26993;48.958;9.330;2022-12-20T16:22:26;7.30;;;4.93;;
41259;SDS011;26993;48.958;9.330;2022-12-20T16:28:10;8.87;;;4.97;;
41259;SDS011;26993;48.958;9.330;2022-12-20T16:30:57;6.33;;;4.30;;
41259;SDS011;26993;48.958;9.330;2022-12-20T16:33:43;8.10;;;4.17;;
41259;SDS011;26993;48.958;9.330;2022-12-20T16:36:30;6.60;;;4.67;;
41259;SDS011;26993;48.958;9.330;2022-12-20T16:39:17;7.63;;;4.30;;
41259;SDS011;26993;48.958;9.330;2022-12-20T16:42:08;7.37;;;4.90;;
41259;SDS011;26993;48.958;9.330;2022-12-20T16:44:57;8.13;;;5.03;;
41259;SDS011;26993;48.958;9.330;2022-12-20T16:47:45;8.00;;;5.00;;
41259;SDS011;26993;48.958;9.330;2022-12-20T16:50:33;10.67;;;5.40;;
41259;SDS011;26993;48.958;9.330;2022-12-20T16:53:27;7.53;;;4.83;;
41259;SDS011;26993;48.958;9.330;2022-12-20T16:56:13;9.97;;;4.80;;
41259;SDS011;26993;48.958;9.330;2022-12-20T16:59:02;7.67;;;4.40;;
41259;SDS011;26993;48.958;9.330;2022-12-20T17:01:49;7.57;;;4.70;;
41259;SDS011;26993;48.958;9.330;2022-12-20T17:04:40;10.37;;;5.50;;
41259;SDS011;26993;48.958;9.330;2022-12-20T17:07:26;10.67;;;5.50;;
41259;SDS011;26993;48.958;9.330;2022-12-20T17:10:13;8.70;;;5.30;;
41259;SDS011;26993;48.958;9.330;2022-12-20T17:13:01;11.47;;;5.90;;
41259;SDS011;26993;48.958;9.330;2022-12-20T17:15:49;9.53;;;5.63;;
41259;SDS011;26993;48.958;9.330;2022-12-20T17:18:36;10.03;;;5.60;;